Killington, VT

3:28 PM EDT on May 25, 2017 (GMT -0400)
Fiore Property Services | | Change Station
Active Advisory: Wind Advisory

Elev 1768 ft 43.65 °N, 72.79 °W | Updated 14 seconds ago

Rain
Rain
51.8 °F
Feels Like 51.8 °F
N
14.5
Wind Variable Wind from SSW
Gusts 17.4 mph

Today
High -- | Low -- °F
--% Chance of Precip.
Yesterday
High -- | Low -- °F
Precip. -- in
Pressure 29.78 in
Visibility 5.0 miles
Clouds Few 4100 ft
Mostly Cloudy 5500 ft
Overcast 7000 ft
Dew Point 47 °F
Humidity 83%
Rainfall 0.18 in
Snow Depth Not available.
5:16 AM 8:20 PM
Waning Crescent, 0% visible
METAR KRUT 251856Z AUTO 12009G20KT 5SM RA BR FEW041 BKN055 OVC070 12/10 A2972 RMK AO2 PK WND 10027/1802 SLP082 P0011 T01220100 $
Pressure 29.78 in
Visibility 5.0 miles
Clouds Few 4100 ft
Mostly Cloudy 5500 ft
Overcast 7000 ft
Dew Point 47 °F
Humidity 83%
Rainfall 0.18 in
Snow Depth Not available.
5:16 AM 8:20 PM
Waning Crescent, 0% visible
METAR KRUT 251856Z AUTO 12009G20KT 5SM RA BR FEW041 BKN055 OVC070 12/10 A2972 RMK AO2 PK WND 10027/1802 SLP082 P0011 T01220100 $

Get Your Daily Forecast Email!

Thanks for signing up!

Be on the lookout for a verification email in your inbox.

You'll start receiving severe weather alerts in your inbox..

×

10-Day Weather Forecast

Almanac

Astronomy

May. 25, 2017 Rise Set
Actual Time
Civil Twilight
Nautical Twilight
Astronomical Twilight
Moon
Length of Visible Light
Length of Day
Tomorrow will be .
, % of the Moon is Illuminated

Today's Extremes

State Highs State Lows

Community

WunderPhotos

Category 6

Welcome to Category 6. This is the collective home for Weather Underground's featured writeups by Dr. Jeff Masters (right), Bob Henson (left), Chris Burt, and other regular contributors.

Nearby

Air Quality

  Air Quality AQ Index Pollutant
Not available.

Snow Depth

Station Depth Elevation

Earthquake Activity

City Distance Mag. Time & Date
Minimum magnitude displayed is 2.5.

Coastal Water Temperatures

Place Temperature

Stations

Nearby Weather Stations

Station Location Temp. Windchill Dew Point Humidity Wind Precip. Elev Updated Type
                   

Watches & Warnings

Wind Advisory
Issued: 3:02 AM EDT May. 25, 2017 – National Weather Service

... Wind Advisory now in effect from 11 am this morning to
midnight EDT tonight...

The National Weather Service in Burlington has extended the Wind
Advisory, from 11 am this morning to midnight EDT tonight.

* Locations... eastern Chittenden, eastern Addison and Rutland
counties in Vermont.

* Hazards... strong gusty winds.

* Winds... east 20 to 30 mph with gusts up to 50 mph.

* Timing... strongest winds will occur between 1 PM and 8 PM
today.

* Impacts... isolated power outages and downed trees are possible.

Precautionary/preparedness actions...

Please stay tuned to NOAA Weather Radio, your local media, or go
to www.Weather.Gov/Burlington for further updates on this weather
situation.